sensor_id;sensor_type;location;lat;lon;timestamp;temperature;humidity
23233;DHT22;11785;49.500;8.288;2023-02-15T00:01:37;2.30;99.90
23233;DHT22;11785;49.500;8.288;2023-02-15T00:04:04;2.30;99.90
23233;DHT22;11785;49.500;8.288;2023-02-15T00:06:29;2.30;99.90
23233;DHT22;11785;49.500;8.288;2023-02-15T00:08:55;2.20;99.90
23233;DHT22;11785;49.500;8.288;2023-02-15T00:11:22;2.30;99.90
23233;DHT22;11785;49.500;8.288;2023-02-15T00:14:08;2.20;99.90
23233;DHT22;11785;49.500;8.288;2023-02-15T00:16:35;2.20;99.90
23233;DHT22;11785;49.500;8.288;2023-02-15T00:19:00;2.20;99.90
23233;DHT22;11785;49.500;8.288;2023-02-15T00:21:28;2.20;99.90
23233;DHT22;11785;49.500;8.288;2023-02-15T00:23:55;2.20;99.90
23233;DHT22;11785;49.500;8.288;2023-02-15T00:26:20;2.30;99.90
23233;DHT22;11785;49.500;8.288;2023-02-15T00:28:46;2.20;99.90
23233;DHT22;11785;49.500;8.288;2023-02-15T00:31:15;2.20;99.90
23233;DHT22;11785;49.500;8.288;2023-02-15T00:33:40;2.30;99.90
23233;DHT22;11785;49.500;8.288;2023-02-15T00:36:08;2.20;99.90
23233;DHT22;11785;49.500;8.288;2023-02-15T00:38:34;2.30;99.90
23233;DHT22;11785;49.500;8.288;2023-02-15T00:41:02;2.30;99.90
23233;DHT22;11785;49.500;8.288;2023-02-15T00:43:30;2.20;99.90
23233;DHT22;11785;49.500;8.288;2023-02-15T00:45:56;2.20;99.90
23233;DHT22;11785;49.500;8.288;2023-02-15T00:48:21;2.20;99.90
23233;DHT22;11785;49.500;8.288;2023-02-15T00:50:54;2.30;99.90
23233;DHT22;11785;49.500;8.288;2023-02-15T00:53:20;2.20;99.90
23233;DHT22;11785;49.500;8.288;2023-02-15T00:55:46;2.20;99.90
23233;DHT22;11785;49.500;8.288;2023-02-15T00:58:12;2.20;99.90
23233;DHT22;11785;49.500;8.288;2023-02-15T01:00:38;2.20;99.90
23233;DHT22;11785;49.500;8.288;2023-02-15T01:03:05;2.20;99.90
23233;DHT22;11785;49.500;8.288;2023-02-15T01:05:31;2.20;99.90
23233;DHT22;11785;49.500;8.288;2023-02-15T01:07:57;2.20;99.90
23233;DHT22;11785;49.500;8.288;2023-02-15T01:10:24;2.10;99.90
23233;DHT22;11785;49.500;8.288;2023-02-15T01:12:53;2.10;99.90
23233;DHT22;11785;49.500;8.288;2023-02-15T01:15:19;2.10;99.90
23233;DHT22;11785;49.500;8.288;2023-02-15T01:17:45;2.10;99.90
23233;DHT22;11785;49.500;8.288;2023-02-15T01:20:17;2.10;99.90
23233;DHT22;11785;49.500;8.288;2023-02-15T01:22:45;2.00;99.90
23233;DHT22;11785;49.500;8.288;2023-02-15T01:25:12;2.10;99.90
23233;DHT22;11785;49.500;8.288;2023-02-15T01:27:38;2.00;99.90
23233;DHT22;11785;49.500;8.288;2023-02-15T01:30:03;2.10;99.90
23233;DHT22;11785;49.500;8.288;2023-02-15T01:32:30;2.10;99.90
23233;DHT22;11785;49.500;8.288;2023-02-15T01:34:56;2.10;99.90
23233;DHT22;11785;49.500;8.288;2023-02-15T01:37:21;2.10;99.90
23233;DHT22;11785;49.500;8.288;2023-02-15T01:39:47;2.10;99.90
23233;DHT22;11785;49.500;8.288;2023-02-15T01:42:12;2.10;99.90
23233;DHT22;11785;49.500;8.288;2023-02-15T01:44:57;2.10;99.90
23233;DHT22;11785;49.500;8.288;2023-02-15T01:47:39;2.10;99.90
23233;DHT22;11785;49.500;8.288;2023-02-15T01:50:14;2.10;99.90
23233;DHT22;11785;49.500;8.288;2023-02-15T01:52:47;2.20;99.90
23233;DHT22;11785;49.500;8.288;2023-02-15T01:55:13;2.10;99.90
23233;DHT22;11785;49.500;8.288;2023-02-15T01:57:40;2.10;99.90
23233;DHT22;11785;49.500;8.288;2023-02-15T02:00:06;2.20;99.90
23233;DHT22;11785;49.500;8.288;2023-02-15T02:02:33;2.20;99.90
23233;DHT22;11785;49.500;8.288;2023-02-15T02:05:01;2.20;99.90
23233;DHT22;11785;49.500;8.288;2023-02-15T02:07:33;2.20;99.90
23233;DHT22;11785;49.500;8.288;2023-02-15T02:10:01;2.20;99.90
23233;DHT22;11785;49.500;8.288;2023-02-15T02:12:26;2.20;99.90
23233;DHT22;11785;49.500;8.288;2023-02-15T02:14:53;2.20;99.90
23233;DHT22;11785;49.500;8.288;2023-02-15T02:22:23;2.20;99.90
23233;DHT22;11785;49.500;8.288;2023-02-15T02:36:35;2.20;99.90
23233;DHT22;11785;49.500;8.288;2023-02-15T02:39:28;2.20;99.90
23233;DHT22;11785;49.500;8.288;2023-02-15T02:42:09;2.20;99.90
23233;DHT22;11785;49.500;8.288;2023-02-15T02:44:40;2.10;99.90
23233;DHT22;11785;49.500;8.288;2023-02-15T02:47:20;2.20;99.90
23233;DHT22;11785;49.500;8.288;2023-02-15T02:49:48;2.10;99.90
23233;DHT22;11785;49.500;8.288;2023-02-15T02:52:39;2.10;99.90
23233;DHT22;11785;49.500;8.288;2023-02-15T03:01:01;2.20;99.90
23233;DHT22;11785;49.500;8.288;2023-02-15T03:03:41;2.20;99.90
23233;DHT22;11785;49.500;8.288;2023-02-15T03:06:51;2.20;99.90
23233;DHT22;11785;49.500;8.288;2023-02-15T03:09:39;2.20;99.90
23233;DHT22;11785;49.500;8.288;2023-02-15T03:12:21;2.20;99.90
23233;DHT22;11785;49.500;8.288;2023-02-15T03:14:55;2.20;99.90
23233;DHT22;11785;49.500;8.288;2023-02-15T03:17:23;2.20;99.90
23233;DHT22;11785;49.500;8.288;2023-02-15T03:19:52;2.10;99.90
23233;DHT22;11785;49.500;8.288;2023-02-15T03:22:35;2.10;99.90
23233;DHT22;11785;49.500;8.288;2023-02-15T03:25:04;2.10;99.90
23233;DHT22;11785;49.500;8.288;2023-02-15T03:27:38;2.20;99.90
23233;DHT22;11785;49.500;8.288;2023-02-15T03:30:06;2.20;99.90
23233;DHT22;11785;49.500;8.288;2023-02-15T03:32:34;2.20;99.90
23233;DHT22;11785;49.500;8.288;2023-02-15T03:35:01;2.20;99.90
23233;DHT22;11785;49.500;8.288;2023-02-15T03:37:53;2.20;99.90
23233;DHT22;11785;49.500;8.288;2023-02-15T03:40:31;2.20;99.90
23233;DHT22;11785;49.500;8.288;2023-02-15T03:46:24;2.10;99.90
23233;DHT22;11785;49.500;8.288;2023-02-15T03:49:05;2.10;99.90
23233;DHT22;11785;49.500;8.288;2023-02-15T03:51:35;2.10;99.90
23233;DHT22;11785;49.500;8.288;2023-02-15T03:56:28;2.10;99.90
23233;DHT22;11785;49.500;8.288;2023-02-15T03:58:54;2.00;99.90
23233;DHT22;11785;49.500;8.288;2023-02-15T04:01:54;2.00;99.90
23233;DHT22;11785;49.500;8.288;2023-02-15T04:04:35;1.90;99.90
23233;DHT22;11785;49.500;8.288;2023-02-15T04:07:02;1.80;99.90
23233;DHT22;11785;49.500;8.288;2023-02-15T04:09:27;1.80;99.90
23233;DHT22;11785;49.500;8.288;2023-02-15T04:12:12;1.80;99.90
23233;DHT22;11785;49.500;8.288;2023-02-15T04:14:37;1.80;99.90
23233;DHT22;11785;49.500;8.288;2023-02-15T04:17:22;1.70;99.90
23233;DHT22;11785;49.500;8.288;2023-02-15T04:19:47;1.70;99.90
23233;DHT22;11785;49.500;8.288;2023-02-15T04:25:16;1.70;99.90
23233;DHT22;11785;49.500;8.288;2023-02-15T04:27:47;1.70;99.90
23233;DHT22;11785;49.500;8.288;2023-02-15T04:30:14;1.60;99.90
23233;DHT22;11785;49.500;8.288;2023-02-15T04:32:41;1.60;99.90
23233;DHT22;11785;49.500;8.288;2023-02-15T04:35:07;1.70;99.90
23233;DHT22;11785;49.500;8.288;2023-02-15T04:37:33;1.70;99.90
23233;DHT22;11785;49.500;8.288;2023-02-15T04:39:59;1.70;99.90
23233;DHT22;11785;49.500;8.288;2023-02-15T04:42:25;1.70;99.90
23233;DHT22;11785;49.500;8.288;2023-02-15T04:44:52;1.70;99.90
23233;DHT22;11785;49.500;8.288;2023-02-15T04:47:17;1.80;99.90
23233;DHT22;11785;49.500;8.288;2023-02-15T04:49:43;1.80;99.90
23233;DHT22;11785;49.500;8.288;2023-02-15T04:52:09;1.80;99.90
23233;DHT22;11785;49.500;8.288;2023-02-15T04:54:34;1.80;99.90
23233;DHT22;11785;49.500;8.288;2023-02-15T04:57:01;1.80;99.90
23233;DHT22;11785;49.500;8.288;2023-02-15T04:59:26;1.70;99.90
23233;DHT22;11785;49.500;8.288;2023-02-15T05:01:52;1.70;99.90
23233;DHT22;11785;49.500;8.288;2023-02-15T05:04:18;1.70;99.90
23233;DHT22;11785;49.500;8.288;2023-02-15T05:06:43;1.70;99.90
23233;DHT22;11785;49.500;8.288;2023-02-15T05:09:12;1.80;99.90
23233;DHT22;11785;49.500;8.288;2023-02-15T05:11:38;1.70;99.90
23233;DHT22;11785;49.500;8.288;2023-02-15T05:14:04;1.70;99.90
23233;DHT22;11785;49.500;8.288;2023-02-15T05:16:29;1.70;99.90
23233;DHT22;11785;49.500;8.288;2023-02-15T05:18:55;1.70;99.90
23233;DHT22;11785;49.500;8.288;2023-02-15T05:21:21;1.80;99.90
23233;DHT22;11785;49.500;8.288;2023-02-15T05:23:46;1.80;99.90
23233;DHT22;11785;49.500;8.288;2023-02-15T05:26:18;1.70;99.90
23233;DHT22;11785;49.500;8.288;2023-02-15T05:29:03;1.80;99.90
23233;DHT22;11785;49.500;8.288;2023-02-15T05:31:30;1.90;99.90
23233;DHT22;11785;49.500;8.288;2023-02-15T05:33:56;1.90;99.90
23233;DHT22;11785;49.500;8.288;2023-02-15T05:36:21;1.90;99.90
23233;DHT22;11785;49.500;8.288;2023-02-15T05:38:47;1.80;99.90
23233;DHT22;11785;49.500;8.288;2023-02-15T05:41:12;1.80;99.90
23233;DHT22;11785;49.500;8.288;2023-02-15T05:43:38;1.80;99.90
23233;DHT22;11785;49.500;8.288;2023-02-15T05:46:04;1.80;99.90
23233;DHT22;11785;49.500;8.288;2023-02-15T05:48:30;1.70;99.90
23233;DHT22;11785;49.500;8.288;2023-02-15T05:51:15;1.80;99.90
23233;DHT22;11785;49.500;8.288;2023-02-15T05:53:42;1.80;99.90
23233;DHT22;11785;49.500;8.288;2023-02-15T05:56:09;1.80;99.90
23233;DHT22;11785;49.500;8.288;2023-02-15T05:58:39;1.80;99.90
23233;DHT22;11785;49.500;8.288;2023-02-15T06:01:17;1.80;99.90
23233;DHT22;11785;49.500;8.288;2023-02-15T06:03:43;1.80;99.90
23233;DHT22;11785;49.500;8.288;2023-02-15T06:06:09;1.80;99.90
23233;DHT22;11785;49.500;8.288;2023-02-15T06:08:36;1.80;99.90
23233;DHT22;11785;49.500;8.288;2023-02-15T06:11:03;1.80;99.90
23233;DHT22;11785;49.500;8.288;2023-02-15T06:13:29;1.80;99.90
23233;DHT22;11785;49.500;8.288;2023-02-15T06:15:54;1.80;99.90
23233;DHT22;11785;49.500;8.288;2023-02-15T06:18:20;1.80;99.90
23233;DHT22;11785;49.500;8.288;2023-02-15T06:20:46;1.80;99.90
23233;DHT22;11785;49.500;8.288;2023-02-15T06:23:12;1.70;99.90
23233;DHT22;11785;49.500;8.288;2023-02-15T06:25:38;1.70;99.90
23233;DHT22;11785;49.500;8.288;2023-02-15T06:28:03;1.70;99.90
23233;DHT22;11785;49.500;8.288;2023-02-15T06:30:29;1.70;99.90
23233;DHT22;11785;49.500;8.288;2023-02-15T06:32:54;1.70;99.90
23233;DHT22;11785;49.500;8.288;2023-02-15T06:35:20;1.70;99.90
23233;DHT22;11785;49.500;8.288;2023-02-15T06:37:47;1.60;99.90
23233;DHT22;11785;49.500;8.288;2023-02-15T06:40:12;1.60;99.90
23233;DHT22;11785;49.500;8.288;2023-02-15T06:42:38;1.60;99.90
23233;DHT22;11785;49.500;8.288;2023-02-15T06:45:04;1.60;99.90
23233;DHT22;11785;49.500;8.288;2023-02-15T06:47:30;1.60;99.90
23233;DHT22;11785;49.500;8.288;2023-02-15T06:49:55;1.60;99.90
23233;DHT22;11785;49.500;8.288;2023-02-15T06:52:21;1.60;99.90
23233;DHT22;11785;49.500;8.288;2023-02-15T06:54:46;1.60;99.90
23233;DHT22;11785;49.500;8.288;2023-02-15T06:57:12;1.60;99.90
23233;DHT22;11785;49.500;8.288;2023-02-15T06:59:37;1.70;99.90
23233;DHT22;11785;49.500;8.288;2023-02-15T07:02:03;1.70;99.90
23233;DHT22;11785;49.500;8.288;2023-02-15T07:04:29;1.70;99.90
23233;DHT22;11785;49.500;8.288;2023-02-15T07:06:55;1.70;99.90
23233;DHT22;11785;49.500;8.288;2023-02-15T07:09:21;1.80;99.90
23233;DHT22;11785;49.500;8.288;2023-02-15T07:11:46;1.70;99.90
23233;DHT22;11785;49.500;8.288;2023-02-15T07:14:30;1.70;99.90
23233;DHT22;11785;49.500;8.288;2023-02-15T07:16:56;1.70;99.90
23233;DHT22;11785;49.500;8.288;2023-02-15T07:19:21;1.60;99.90
23233;DHT22;11785;49.500;8.288;2023-02-15T07:21:47;1.70;99.90
23233;DHT22;11785;49.500;8.288;2023-02-15T07:24:13;1.70;99.90
23233;DHT22;11785;49.500;8.288;2023-02-15T07:26:39;1.70;99.90
23233;DHT22;11785;49.500;8.288;2023-02-15T07:29:04;1.70;99.90
23233;DHT22;11785;49.500;8.288;2023-02-15T07:31:30;1.70;99.90
23233;DHT22;11785;49.500;8.288;2023-02-15T07:33:56;1.70;99.90
23233;DHT22;11785;49.500;8.288;2023-02-15T07:36:21;1.70;99.90
23233;DHT22;11785;49.500;8.288;2023-02-15T07:38:47;1.70;99.90
23233;DHT22;11785;49.500;8.288;2023-02-15T07:41:14;1.70;99.90
23233;DHT22;11785;49.500;8.288;2023-02-15T07:43:42;1.70;99.90
23233;DHT22;11785;49.500;8.288;2023-02-15T07:46:14;1.70;99.90
23233;DHT22;11785;49.500;8.288;2023-02-15T07:48:40;1.80;99.90
23233;DHT22;11785;49.500;8.288;2023-02-15T07:51:08;1.70;99.90
23233;DHT22;11785;49.500;8.288;2023-02-15T07:53:35;1.70;99.90
23233;DHT22;11785;49.500;8.288;2023-02-15T07:56:02;1.60;99.90
23233;DHT22;11785;49.500;8.288;2023-02-15T07:58:28;1.60;99.90
23233;DHT22;11785;49.500;8.288;2023-02-15T08:01:13;1.60;99.90
23233;DHT22;11785;49.500;8.288;2023-02-15T08:03:38;1.70;99.90
23233;DHT22;11785;49.500;8.288;2023-02-15T08:06:04;1.70;99.90
23233;DHT22;11785;49.500;8.288;2023-02-15T08:08:30;1.80;99.90
23233;DHT22;11785;49.500;8.288;2023-02-15T08:11:09;1.80;99.90
23233;DHT22;11785;49.500;8.288;2023-02-15T08:16:24;1.80;99.90
23233;DHT22;11785;49.500;8.288;2023-02-15T08:18:50;1.80;99.90
23233;DHT22;11785;49.500;8.288;2023-02-15T08:21:17;1.80;99.90
23233;DHT22;11785;49.500;8.288;2023-02-15T08:23:42;1.80;99.90
23233;DHT22;11785;49.500;8.288;2023-02-15T08:26:08;1.90;99.90
23233;DHT22;11785;49.500;8.288;2023-02-15T08:28:33;1.90;99.90
23233;DHT22;11785;49.500;8.288;2023-02-15T08:31:18;1.90;99.90
23233;DHT22;11785;49.500;8.288;2023-02-15T08:33:45;1.80;99.90
23233;DHT22;11785;49.500;8.288;2023-02-15T08:36:13;1.80;99.90
23233;DHT22;11785;49.500;8.288;2023-02-15T08:38:39;1.80;99.90
23233;DHT22;11785;49.500;8.288;2023-02-15T08:41:19;1.80;99.90
23233;DHT22;11785;49.500;8.288;2023-02-15T08:43:48;1.80;99.90
23233;DHT22;11785;49.500;8.288;2023-02-15T08:46:15;1.80;99.90
23233;DHT22;11785;49.500;8.288;2023-02-15T08:48:42;1.90;99.90
23233;DHT22;11785;49.500;8.288;2023-02-15T08:51:19;1.90;99.90
23233;DHT22;11785;49.500;8.288;2023-02-15T08:53:48;1.80;99.90
23233;DHT22;11785;49.500;8.288;2023-02-15T08:56:15;1.80;99.90
23233;DHT22;11785;49.500;8.288;2023-02-15T08:58:41;1.80;99.90
23233;DHT22;11785;49.500;8.288;2023-02-15T09:01:10;1.80;99.90
23233;DHT22;11785;49.500;8.288;2023-02-15T09:03:36;1.80;99.90
23233;DHT22;11785;49.500;8.288;2023-02-15T09:06:02;1.80;99.90
23233;DHT22;11785;49.500;8.288;2023-02-15T09:08:28;1.80;99.90
23233;DHT22;11785;49.500;8.288;2023-02-15T09:10:54;1.80;99.90
23233;DHT22;11785;49.500;8.288;2023-02-15T09:13:20;1.80;99.90
23233;DHT22;11785;49.500;8.288;2023-02-15T09:15:46;1.80;99.90
23233;DHT22;11785;49.500;8.288;2023-02-15T09:18:12;1.80;99.90
23233;DHT22;11785;49.500;8.288;2023-02-15T09:20:43;1.90;99.90
23233;DHT22;11785;49.500;8.288;2023-02-15T09:23:08;2.00;99.90
23233;DHT22;11785;49.500;8.288;2023-02-15T09:25:34;2.10;99.90
23233;DHT22;11785;49.500;8.288;2023-02-15T09:27:59;2.10;99.90
23233;DHT22;11785;49.500;8.288;2023-02-15T09:30:25;2.10;99.90
23233;DHT22;11785;49.500;8.288;2023-02-15T09:32:50;2.10;99.90
23233;DHT22;11785;49.500;8.288;2023-02-15T09:35:16;2.10;99.90
23233;DHT22;11785;49.500;8.288;2023-02-15T09:37:42;2.00;99.90
23233;DHT22;11785;49.500;8.288;2023-02-15T09:40:08;2.00;99.90
23233;DHT22;11785;49.500;8.288;2023-02-15T09:42:52;2.00;99.90
23233;DHT22;11785;49.500;8.288;2023-02-15T09:58:59;2.10;99.90
23233;DHT22;11785;49.500;8.288;2023-02-15T10:10:24;2.40;99.90
23233;DHT22;11785;49.500;8.288;2023-02-15T10:18:58;2.30;99.90
23233;DHT22;11785;49.500;8.288;2023-02-15T10:24:35;2.30;99.90
23233;DHT22;11785;49.500;8.288;2023-02-15T10:27:12;2.30;99.90
23233;DHT22;11785;49.500;8.288;2023-02-15T10:29:48;2.40;99.90
23233;DHT22;11785;49.500;8.288;2023-02-15T10:35:20;2.50;99.90
23233;DHT22;11785;49.500;8.288;2023-02-15T10:40:55;2.50;99.90
23233;DHT22;11785;49.500;8.288;2023-02-15T10:52:34;2.70;99.90
23233;DHT22;11785;49.500;8.288;2023-02-15T10:55:22;2.80;99.90
23233;DHT22;11785;49.500;8.288;2023-02-15T11:00:34;2.90;99.90
23233;DHT22;11785;49.500;8.288;2023-02-15T11:03:17;2.90;99.90
23233;DHT22;11785;49.500;8.288;2023-02-15T11:08:35;3.00;99.90
23233;DHT22;11785;49.500;8.288;2023-02-15T11:11:06;2.90;99.90
23233;DHT22;11785;49.500;8.288;2023-02-15T11:13:38;2.90;99.90
23233;DHT22;11785;49.500;8.288;2023-02-15T11:16:15;3.00;99.90
23233;DHT22;11785;49.500;8.288;2023-02-15T11:18:49;3.10;99.90
23233;DHT22;11785;49.500;8.288;2023-02-15T11:21:24;3.10;99.90
23233;DHT22;11785;49.500;8.288;2023-02-15T11:23:52;3.10;99.90
23233;DHT22;11785;49.500;8.288;2023-02-15T11:26:37;3.00;99.90
23233;DHT22;11785;49.500;8.288;2023-02-15T11:31:50;3.30;99.90
23233;DHT22;11785;49.500;8.288;2023-02-15T11:34:25;3.30;99.90
23233;DHT22;11785;49.500;8.288;2023-02-15T11:36:54;3.30;99.90
23233;DHT22;11785;49.500;8.288;2023-02-15T11:39:21;3.10;99.90
23233;DHT22;11785;49.500;8.288;2023-02-15T11:41:51;3.00;99.90
23233;DHT22;11785;49.500;8.288;2023-02-15T11:44:21;3.10;99.90
23233;DHT22;11785;49.500;8.288;2023-02-15T11:46:49;3.00;99.90
23233;DHT22;11785;49.500;8.288;2023-02-15T11:49:22;3.10;99.90
23233;DHT22;11785;49.500;8.288;2023-02-15T11:51:48;2.90;99.90
23233;DHT22;11785;49.500;8.288;2023-02-15T11:54:17;2.80;99.90
23233;DHT22;11785;49.500;8.288;2023-02-15T11:56:43;2.80;99.90
23233;DHT22;11785;49.500;8.288;2023-02-15T11:59:14;2.90;99.90
23233;DHT22;11785;49.500;8.288;2023-02-15T12:01:46;2.90;99.90
23233;DHT22;11785;49.500;8.288;2023-02-15T12:04:25;3.00;99.90
23233;DHT22;11785;49.500;8.288;2023-02-15T12:07:03;3.10;99.90
23233;DHT22;11785;49.500;8.288;2023-02-15T12:10:02;3.00;99.90
23233;DHT22;11785;49.500;8.288;2023-02-15T12:12:37;3.20;99.90
23233;DHT22;11785;49.500;8.288;2023-02-15T12:15:06;3.30;99.90
23233;DHT22;11785;49.500;8.288;2023-02-15T12:17:48;3.10;99.90
23233;DHT22;11785;49.500;8.288;2023-02-15T12:22:46;3.10;99.90
23233;DHT22;11785;49.500;8.288;2023-02-15T12:25:33;3.30;99.90
23233;DHT22;11785;49.500;8.288;2023-02-15T12:28:00;3.30;99.90
23233;DHT22;11785;49.500;8.288;2023-02-15T12:30:35;3.40;99.90
23233;DHT22;11785;49.500;8.288;2023-02-15T12:33:20;3.50;99.90
23233;DHT22;11785;49.500;8.288;2023-02-15T12:35:47;3.50;99.90
23233;DHT22;11785;49.500;8.288;2023-02-15T12:38:24;3.50;99.90
23233;DHT22;11785;49.500;8.288;2023-02-15T12:41:01;3.50;99.90
23233;DHT22;11785;49.500;8.288;2023-02-15T12:43:37;3.50;99.90
23233;DHT22;11785;49.500;8.288;2023-02-15T12:48:45;3.50;99.90
23233;DHT22;11785;49.500;8.288;2023-02-15T12:51:14;3.50;99.90
23233;DHT22;11785;49.500;8.288;2023-02-15T12:53:40;3.60;99.90
23233;DHT22;11785;49.500;8.288;2023-02-15T12:56:07;3.70;99.90
23233;DHT22;11785;49.500;8.288;2023-02-15T12:58:39;3.60;99.90
23233;DHT22;11785;49.500;8.288;2023-02-15T13:01:18;3.60;99.90
23233;DHT22;11785;49.500;8.288;2023-02-15T13:06:19;3.50;99.90
23233;DHT22;11785;49.500;8.288;2023-02-15T13:08:49;3.60;99.90
23233;DHT22;11785;49.500;8.288;2023-02-15T13:11:22;3.50;99.90
23233;DHT22;11785;49.500;8.288;2023-02-15T13:13:58;3.40;99.90
23233;DHT22;11785;49.500;8.288;2023-02-15T13:16:36;3.50;99.90
23233;DHT22;11785;49.500;8.288;2023-02-15T13:19:22;3.40;99.90
23233;DHT22;11785;49.500;8.288;2023-02-15T13:21:52;3.50;99.90
23233;DHT22;11785;49.500;8.288;2023-02-15T13:26:47;3.60;99.90
23233;DHT22;11785;49.500;8.288;2023-02-15T13:29:28;3.60;99.90
23233;DHT22;11785;49.500;8.288;2023-02-15T13:32:07;3.60;99.90
23233;DHT22;11785;49.500;8.288;2023-02-15T13:34:37;3.60;99.90
23233;DHT22;11785;49.500;8.288;2023-02-15T13:37:29;3.50;99.90
23233;DHT22;11785;49.500;8.288;2023-02-15T13:40:00;3.40;99.90
23233;DHT22;11785;49.500;8.288;2023-02-15T13:42:38;3.40;99.90
23233;DHT22;11785;49.500;8.288;2023-02-15T13:53:40;3.50;99.90
23233;DHT22;11785;49.500;8.288;2023-02-15T13:56:40;3.60;99.90
23233;DHT22;11785;49.500;8.288;2023-02-15T14:02:49;3.70;99.90
23233;DHT22;11785;49.500;8.288;2023-02-15T14:11:06;3.70;99.90
23233;DHT22;11785;49.500;8.288;2023-02-15T14:13:53;3.60;99.90
23233;DHT22;11785;49.500;8.288;2023-02-15T14:19:16;3.50;99.90
23233;DHT22;11785;49.500;8.288;2023-02-15T14:27:59;3.50;99.90
23233;DHT22;11785;49.500;8.288;2023-02-15T14:30:19;3.60;99.90
23233;DHT22;11785;49.500;8.288;2023-02-15T14:32:49;3.70;99.90
23233;DHT22;11785;49.500;8.288;2023-02-15T14:35:22;3.70;99.90
23233;DHT22;11785;49.500;8.288;2023-02-15T14:48:48;3.60;99.90
23233;DHT22;11785;49.500;8.288;2023-02-15T14:54:07;3.60;99.90
23233;DHT22;11785;49.500;8.288;2023-02-15T14:56:33;3.50;99.90
23233;DHT22;11785;49.500;8.288;2023-02-15T14:59:16;3.50;99.90
23233;DHT22;11785;49.500;8.288;2023-02-15T15:01:57;3.50;99.90
23233;DHT22;11785;49.500;8.288;2023-02-15T15:04:31;3.60;99.90
23233;DHT22;11785;49.500;8.288;2023-02-15T15:10:23;3.60;99.90
23233;DHT22;11785;49.500;8.288;2023-02-15T15:12:56;3.70;99.90
23233;DHT22;11785;49.500;8.288;2023-02-15T15:18:07;3.60;99.90
23233;DHT22;11785;49.500;8.288;2023-02-15T15:20:42;3.60;99.90
23233;DHT22;11785;49.500;8.288;2023-02-15T15:25:47;3.70;99.90
23233;DHT22;11785;49.500;8.288;2023-02-15T15:42:26;3.60;99.90
23233;DHT22;11785;49.500;8.288;2023-02-15T15:50:43;3.50;99.90
23233;DHT22;11785;49.500;8.288;2023-02-15T15:53:20;3.40;99.90
23233;DHT22;11785;49.500;8.288;2023-02-15T15:55:49;3.40;99.90
23233;DHT22;11785;49.500;8.288;2023-02-15T15:58:17;3.40;99.90
23233;DHT22;11785;49.500;8.288;2023-02-15T16:00:51;3.40;99.90
23233;DHT22;11785;49.500;8.288;2023-02-15T16:03:25;3.40;99.90
23233;DHT22;11785;49.500;8.288;2023-02-15T16:05:51;3.40;99.90
23233;DHT22;11785;49.500;8.288;2023-02-15T16:10:52;3.40;99.90
23233;DHT22;11785;49.500;8.288;2023-02-15T16:13:18;3.40;99.90
23233;DHT22;11785;49.500;8.288;2023-02-15T16:15:46;3.50;99.90
23233;DHT22;11785;49.500;8.288;2023-02-15T16:18:16;3.40;99.90
23233;DHT22;11785;49.500;8.288;2023-02-15T16:20:58;3.40;99.90
23233;DHT22;11785;49.500;8.288;2023-02-15T16:26:35;3.40;99.90
23233;DHT22;11785;49.500;8.288;2023-02-15T16:29:17;3.30;99.90
23233;DHT22;11785;49.500;8.288;2023-02-15T16:31:43;3.30;99.90
23233;DHT22;11785;49.500;8.288;2023-02-15T16:34:21;3.30;99.90
23233;DHT22;11785;49.500;8.288;2023-02-15T16:36:46;3.20;99.90
23233;DHT22;11785;49.500;8.288;2023-02-15T16:39:21;3.20;99.90
23233;DHT22;11785;49.500;8.288;2023-02-15T16:41:48;3.20;99.90
23233;DHT22;11785;49.500;8.288;2023-02-15T16:44:20;3.10;99.90
23233;DHT22;11785;49.500;8.288;2023-02-15T16:46:49;3.10;99.90
23233;DHT22;11785;49.500;8.288;2023-02-15T16:49:26;3.00;99.90
23233;DHT22;11785;49.500;8.288;2023-02-15T16:51:58;3.00;99.90
23233;DHT22;11785;49.500;8.288;2023-02-15T16:54:25;3.00;99.90
23233;DHT22;11785;49.500;8.288;2023-02-15T16:56:52;3.00;99.90
23233;DHT22;11785;49.500;8.288;2023-02-15T16:59:40;2.90;99.90
23233;DHT22;11785;49.500;8.288;2023-02-15T17:02:18;2.90;99.90
23233;DHT22;11785;49.500;8.288;2023-02-15T17:04:44;2.90;99.90
23233;DHT22;11785;49.500;8.288;2023-02-15T17:07:18;2.90;99.90
23233;DHT22;11785;49.500;8.288;2023-02-15T17:09:55;2.90;99.90
23233;DHT22;11785;49.500;8.288;2023-02-15T17:12:47;3.00;99.90
23233;DHT22;11785;49.500;8.288;2023-02-15T17:15:25;3.00;99.90
23233;DHT22;11785;49.500;8.288;2023-02-15T17:17:51;3.00;99.90
23233;DHT22;11785;49.500;8.288;2023-02-15T17:20:18;3.00;99.90
23233;DHT22;11785;49.500;8.288;2023-02-15T17:22:44;2.90;99.90
23233;DHT22;11785;49.500;8.288;2023-02-15T17:25:20;2.90;99.90
23233;DHT22;11785;49.500;8.288;2023-02-15T17:27:51;2.90;99.90
23233;DHT22;11785;49.500;8.288;2023-02-15T17:30:32;2.90;99.90
23233;DHT22;11785;49.500;8.288;2023-02-15T17:33:03;2.90;99.90
23233;DHT22;11785;49.500;8.288;2023-02-15T17:35:32;2.90;99.90
23233;DHT22;11785;49.500;8.288;2023-02-15T17:38:16;2.90;99.90
23233;DHT22;11785;49.500;8.288;2023-02-15T17:40:42;2.90;99.90
23233;DHT22;11785;49.500;8.288;2023-02-15T17:43:08;2.90;99.90
23233;DHT22;11785;49.500;8.288;2023-02-15T17:45:36;2.90;99.90
23233;DHT22;11785;49.500;8.288;2023-02-15T17:48:05;2.90;99.90
23233;DHT22;11785;49.500;8.288;2023-02-15T17:50:32;2.90;99.90
23233;DHT22;11785;49.500;8.288;2023-02-15T17:52:58;2.90;99.90
23233;DHT22;11785;49.500;8.288;2023-02-15T17:55:26;2.90;99.90
23233;DHT22;11785;49.500;8.288;2023-02-15T17:58:17;2.90;99.90
23233;DHT22;11785;49.500;8.288;2023-02-15T18:00:57;2.90;99.90
23233;DHT22;11785;49.500;8.288;2023-02-15T18:03:50;2.80;99.90
23233;DHT22;11785;49.500;8.288;2023-02-15T18:06:36;2.90;99.90
23233;DHT22;11785;49.500;8.288;2023-02-15T18:09:22;2.90;99.90
23233;DHT22;11785;49.500;8.288;2023-02-15T18:12:29;2.90;99.90
23233;DHT22;11785;49.500;8.288;2023-02-15T18:14:58;2.80;99.90
23233;DHT22;11785;49.500;8.288;2023-02-15T18:17:37;2.80;99.90
23233;DHT22;11785;49.500;8.288;2023-02-15T18:20:06;2.80;99.90
23233;DHT22;11785;49.500;8.288;2023-02-15T18:22:33;2.80;99.90
23233;DHT22;11785;49.500;8.288;2023-02-15T18:24:58;2.80;99.90
23233;DHT22;11785;49.500;8.288;2023-02-15T18:27:24;2.80;99.90
23233;DHT22;11785;49.500;8.288;2023-02-15T18:29:50;2.80;99.90
23233;DHT22;11785;49.500;8.288;2023-02-15T18:32:22;2.80;99.90
23233;DHT22;11785;49.500;8.288;2023-02-15T18:34:51;2.80;99.90
23233;DHT22;11785;49.500;8.288;2023-02-15T18:37:21;2.80;99.90
23233;DHT22;11785;49.500;8.288;2023-02-15T18:39:48;2.80;99.90
23233;DHT22;11785;49.500;8.288;2023-02-15T18:44:47;2.80;99.90
23233;DHT22;11785;49.500;8.288;2023-02-15T18:47:12;2.80;99.90
23233;DHT22;11785;49.500;8.288;2023-02-15T18:49:38;2.80;99.90
23233;DHT22;11785;49.500;8.288;2023-02-15T18:52:04;2.80;99.90
23233;DHT22;11785;49.500;8.288;2023-02-15T18:54:29;2.80;99.90
23233;DHT22;11785;49.500;8.288;2023-02-15T18:56:59;2.80;99.90
23233;DHT22;11785;49.500;8.288;2023-02-15T18:59:26;2.80;99.90
23233;DHT22;11785;49.500;8.288;2023-02-15T19:01:53;2.70;99.90
23233;DHT22;11785;49.500;8.288;2023-02-15T19:04:19;2.70;99.90